Forside
METAR-TAF:

METAR-TAF

Lufthavne :

Stornoway, Skotland

Breddekreds: 58-13N, længdekreds: 006-19W, højde: 9 m

Aktuelle vejr

Denne rapport blev lavet for 32 minutter siden, kl. 12:50 UTC
Vind 16 kt fra vestnordvest
Temperatur 9°C
Fugtighed 76%
Tryk 1033 hPa
Sigt 10 km eller mere

METAR: EGPO 311250Z AUTO 29016KT 9999 SCT024/// SCT029/// BKN043/// 09/05 Q1033

Tid: 14:22 (13:22 UTC)

Vejrudsigter

Denne rapport blev lavet for 2 timer og 19 minutter siden, kl. 11:03 UTC
Foreløbig gælder fra 31 på 12 UTC til 31 på 21 UTC
Vind 9 kt fra vest
Sigt 10 km eller mere
Spredte skyer i en højde af 2500 ft
Midlertidig
fra 31 på 12 UTC til 31 på 21 UTC
Vind 15 kt fra vestnordvest med vindstød på up til 25 kt
Sigt: 6000 m
Brudte skyer i en højde af 1400 ft
regnbyger

TAF: EGPO 311103Z 3112/3121 27009KT 9999 SCT025 TEMPO 3112/3121 30015G25KT 6000 SHRA BKN014

Vejrobservationer og prognoser fra mere end 4000 lufthavne (METAR og TAF).

De gule og røde prikker repræsenterer de meteorologiske stationer.

Flyt musen over at se navnet på stationen.

Så klik over at se vejr observationer og prognoser.

At skifte det kort: Klik på de grønne knapper med et sort kors for at zoome ind; på den grønne knap med en bindestreg for at zoome ud; eller på de grønne pile for tilstødende kort.


METAR-TAF: